createdAt,value
2022-12-24T00:01:13.413Z,86.43
2022-12-24T00:03:44.219Z,86.47
2022-12-24T00:06:19.390Z,86.37
2022-12-24T00:08:51.063Z,86.42
2022-12-24T00:11:22.823Z,85.84
2022-12-24T00:13:53.572Z,85.78
2022-12-24T00:16:24.322Z,85.37
2022-12-24T00:18:55.382Z,85.16
2022-12-24T00:21:25.949Z,85.00
2022-12-24T00:23:56.533Z,84.84
2022-12-24T00:26:27.217Z,84.56
2022-12-24T00:28:58.019Z,84.41
2022-12-24T00:31:29.330Z,84.31
2022-12-24T00:34:00.137Z,84.10
2022-12-24T00:36:30.829Z,83.87
2022-12-24T00:39:01.649Z,84.13
2022-12-24T00:41:32.325Z,84.10
2022-12-24T00:44:05.889Z,84.51
2022-12-24T00:46:37.841Z,84.44
2022-12-24T00:49:09.593Z,84.17
2022-12-24T00:51:40.483Z,84.32
2022-12-24T00:54:11.740Z,84.27
2022-12-24T00:56:42.546Z,84.38
2022-12-24T00:59:13.183Z,84.35
2022-12-24T01:01:43.985Z,84.35
2022-12-24T01:04:32.744Z,84.38
2022-12-24T01:07:03.486Z,84.36
2022-12-24T01:09:34.178Z,84.15
2022-12-24T01:12:05.345Z,84.10
2022-12-24T01:14:36.162Z,84.03
2022-12-24T01:17:06.808Z,83.56
2022-12-24T01:19:37.759Z,83.51
2022-12-24T01:22:08.403Z,83.30
2022-12-24T01:24:39.365Z,83.26
2022-12-24T01:27:10.323Z,83.06
2022-12-24T01:29:41.044Z,82.99
2022-12-24T01:32:11.664Z,82.76
2022-12-24T01:34:42.403Z,82.60
2022-12-24T01:37:13.030Z,82.36
2022-12-24T01:39:43.677Z,82.43
2022-12-24T01:42:42.562Z,82.13
2022-12-24T01:45:44.902Z,81.83
2022-12-24T01:48:24.010Z,82.02
2022-12-24T01:50:59.040Z,81.79
2022-12-24T01:53:30.906Z,81.70
2022-12-24T01:56:02.331Z,81.77
2022-12-24T01:58:33.612Z,81.91
2022-12-24T02:01:04.777Z,81.84
2022-12-24T02:03:35.623Z,81.50
2022-12-24T02:06:08.887Z,81.43
2022-12-24T02:08:42.552Z,81.38
2022-12-24T02:11:16.359Z,81.34
2022-12-24T02:13:52.376Z,81.46
2022-12-24T02:16:36.989Z,81.55
2022-12-24T02:19:35.995Z,81.67
2022-12-24T02:22:10.599Z,81.64
2022-12-24T02:25:03.783Z,81.73
2022-12-24T02:27:48.943Z,81.65
2022-12-24T02:30:23.099Z,81.58
2022-12-24T02:33:19.287Z,81.54
2022-12-24T02:35:54.895Z,81.20
2022-12-24T02:38:30.423Z,81.22
2022-12-24T02:41:07.453Z,81.09
2022-12-24T02:43:43.566Z,80.69
2022-12-24T02:46:18.242Z,80.48
2022-12-24T02:48:51.073Z,80.46
2022-12-24T02:51:23.510Z,80.64
2022-12-24T02:53:54.225Z,80.54
2022-12-24T02:56:43.810Z,81.11
2022-12-24T02:59:50.660Z,81.21
2022-12-24T03:02:29.131Z,81.56
2022-12-24T03:05:11.878Z,81.54
2022-12-24T03:07:52.840Z,81.51
2022-12-24T03:10:29.238Z,81.68
2022-12-24T03:13:05.618Z,81.58
2022-12-24T03:15:38.145Z,81.68
2022-12-24T03:18:12.439Z,81.98
2022-12-24T03:20:47.495Z,82.08
2022-12-24T03:23:18.419Z,82.47
2022-12-24T03:25:49.268Z,82.60
2022-12-24T03:28:25.602Z,82.86
2022-12-24T03:30:56.877Z,82.90
2022-12-24T03:33:27.648Z,82.80
2022-12-24T03:35:58.361Z,82.69
2022-12-24T03:38:29.115Z,82.73
2022-12-24T03:40:59.847Z,82.81
2022-12-24T03:43:30.821Z,82.69
2022-12-24T03:46:04.625Z,82.98
2022-12-24T03:48:36.558Z,82.82
2022-12-24T03:51:18.035Z,82.66
2022-12-24T03:53:48.792Z,82.57
2022-12-24T03:56:19.583Z,82.33
2022-12-24T03:58:50.797Z,82.38
2022-12-24T04:01:21.746Z,82.38
2022-12-24T04:03:52.672Z,82.04
2022-12-24T04:06:23.316Z,82.17
2022-12-24T04:08:54.044Z,81.83
2022-12-24T04:11:24.741Z,81.83
2022-12-24T04:13:55.391Z,81.79
2022-12-24T04:16:26.640Z,81.52
2022-12-24T04:18:57.344Z,81.40
2022-12-24T04:21:28.120Z,81.49
2022-12-24T04:23:58.842Z,81.32
2022-12-24T04:26:29.516Z,80.96
2022-12-24T04:29:00.367Z,80.86
2022-12-24T04:31:31.026Z,80.62
2022-12-24T04:34:01.760Z,80.48
2022-12-24T04:36:32.682Z,79.87
2022-12-24T04:39:03.385Z,79.45
2022-12-24T04:41:34.654Z,79.24
2022-12-24T04:44:05.340Z,79.09
2022-12-24T04:46:36.791Z,78.77
2022-12-24T04:49:07.528Z,78.76
2022-12-24T04:51:38.343Z,78.43
2022-12-24T04:54:09.099Z,77.93
2022-12-24T04:56:39.841Z,77.99
2022-12-24T04:59:10.654Z,77.92
2022-12-24T05:01:41.589Z,77.61
2022-12-24T05:04:12.950Z,77.57
2022-12-24T05:06:43.630Z,77.13
2022-12-24T05:09:14.249Z,77.01
2022-12-24T05:11:44.968Z,76.98
2022-12-24T05:14:15.740Z,77.19
2022-12-24T05:16:46.400Z,76.96
2022-12-24T05:19:17.213Z,77.13
2022-12-24T05:22:08.658Z,77.75
2022-12-24T05:24:57.174Z,77.63
2022-12-24T05:27:28.039Z,77.61
2022-12-24T05:29:58.636Z,78.09
2022-12-24T05:32:29.824Z,78.24
2022-12-24T05:35:00.495Z,78.30
2022-12-24T05:37:31.194Z,78.47
2022-12-24T05:40:01.861Z,78.54
2022-12-24T05:42:32.619Z,78.63
2022-12-24T05:45:03.277Z,78.66
2022-12-24T05:47:41.253Z,78.52
2022-12-24T05:50:14.772Z,78.47
2022-12-24T05:52:45.456Z,78.45
2022-12-24T05:55:16.372Z,78.03
2022-12-24T05:57:47.205Z,77.94
2022-12-24T06:00:19.821Z,77.51
2022-12-24T06:02:50.574Z,77.35
2022-12-24T06:05:21.399Z,76.76
2022-12-24T06:07:52.057Z,76.70
2022-12-24T06:10:22.805Z,76.64
2022-12-24T06:12:53.514Z,76.65
2022-12-24T06:15:24.453Z,76.86
2022-12-24T06:17:55.105Z,76.55
2022-12-24T06:20:25.838Z,76.64
2022-12-24T06:22:56.512Z,76.72
2022-12-24T06:25:27.214Z,76.74
2022-12-24T06:27:57.986Z,76.55
2022-12-24T06:30:28.715Z,76.68
2022-12-24T06:32:59.377Z,76.78
2022-12-24T06:35:32.008Z,76.90
2022-12-24T06:38:02.723Z,76.84
2022-12-24T06:40:33.438Z,76.84
2022-12-24T06:43:04.095Z,76.69
2022-12-24T06:45:34.805Z,76.83
2022-12-24T06:48:06.565Z,76.28
2022-12-24T06:50:37.392Z,76.15
2022-12-24T06:53:08.372Z,75.26
2022-12-24T06:55:39.158Z,74.93
2022-12-24T06:58:09.894Z,74.71
2022-12-24T07:00:40.968Z,74.69
2022-12-24T07:03:12.796Z,74.17
2022-12-24T07:05:43.787Z,73.53
2022-12-24T07:08:14.437Z,72.94
2022-12-24T07:10:50.570Z,73.14
2022-12-24T07:13:24.659Z,73.21
2022-12-24T07:16:01.388Z,72.39
2022-12-24T07:18:32.179Z,72.54
2022-12-24T07:21:03.834Z,72.56
2022-12-24T07:23:34.577Z,72.11
2022-12-24T07:26:06.926Z,71.97
2022-12-24T07:28:37.670Z,71.79
2022-12-24T07:31:08.458Z,71.38
2022-12-24T07:33:39.194Z,71.16
2022-12-24T07:36:15.543Z,70.88
2022-12-24T07:38:46.188Z,71.03
2022-12-24T07:41:17.105Z,70.96
2022-12-24T07:43:48.054Z,70.83
2022-12-24T07:46:18.826Z,70.77
2022-12-24T07:48:49.538Z,70.26
2022-12-24T07:51:20.145Z,70.24
2022-12-24T07:53:50.793Z,70.05
2022-12-24T07:56:21.493Z,70.92
2022-12-24T07:58:52.916Z,70.53
2022-12-24T08:01:23.991Z,70.25
2022-12-24T08:03:55.669Z,70.23
2022-12-24T08:06:26.665Z,70.07
2022-12-24T08:08:57.401Z,70.10
2022-12-24T08:11:28.153Z,70.36
2022-12-24T08:13:58.770Z,70.58
2022-12-24T08:16:29.609Z,70.89
2022-12-24T08:19:00.486Z,71.19
2022-12-24T08:21:31.114Z,71.36
2022-12-24T08:24:01.752Z,71.69
2022-12-24T08:26:32.369Z,71.97
2022-12-24T08:29:05.039Z,72.26
2022-12-24T08:31:36.485Z,72.24
2022-12-24T08:34:09.072Z,72.38
2022-12-24T08:36:39.687Z,72.50
2022-12-24T08:39:11.107Z,72.58
2022-12-24T08:41:41.780Z,72.62
2022-12-24T08:44:12.375Z,72.41
2022-12-24T08:46:43.349Z,72.53
2022-12-24T08:49:14.166Z,72.43
2022-12-24T08:51:44.766Z,72.21
2022-12-24T08:54:15.698Z,72.39
2022-12-24T08:56:46.336Z,72.50
2022-12-24T08:59:17.137Z,72.30
2022-12-24T09:01:48.069Z,72.41
2022-12-24T09:04:18.974Z,72.30
2022-12-24T09:06:50.031Z,72.17
2022-12-24T09:09:20.993Z,71.73
2022-12-24T09:11:51.706Z,71.29
2022-12-24T09:14:22.300Z,71.12
2022-12-24T09:16:53.092Z,70.74
2022-12-24T09:19:24.087Z,70.59
2022-12-24T09:21:54.807Z,70.58
2022-12-24T09:24:25.435Z,70.27
2022-12-24T09:26:58.191Z,70.17
2022-12-24T09:29:29.132Z,70.01
2022-12-24T09:32:00.269Z,69.66
2022-12-24T09:34:31.152Z,69.56
2022-12-24T09:37:03.196Z,69.31
2022-12-24T09:39:34.227Z,69.18
2022-12-24T09:42:17.751Z,68.92
2022-12-24T09:44:53.274Z,68.52
2022-12-24T09:47:30.310Z,67.86
2022-12-24T09:50:04.034Z,67.77
2022-12-24T09:52:39.405Z,67.97
2022-12-24T09:55:28.183Z,67.30
2022-12-24T09:58:01.991Z,67.11
2022-12-24T10:00:34.416Z,66.73
2022-12-24T10:03:14.457Z,66.72
2022-12-24T10:05:52.199Z,65.50
2022-12-24T10:08:32.808Z,65.06
2022-12-24T10:11:09.008Z,64.53
2022-12-24T10:13:51.861Z,64.51
2022-12-24T10:16:30.455Z,64.53
2022-12-24T10:19:03.907Z,64.45
2022-12-24T10:21:43.622Z,63.99
2022-12-24T10:24:22.569Z,63.53
2022-12-24T10:26:58.738Z,63.17
2022-12-24T10:29:33.334Z,63.25
2022-12-24T10:32:17.714Z,63.22
2022-12-24T10:34:53.756Z,63.76
2022-12-24T10:37:28.549Z,63.73
2022-12-24T10:40:01.921Z,63.97
2022-12-24T10:42:50.105Z,64.28
2022-12-24T10:45:25.466Z,63.45
2022-12-24T10:47:59.774Z,63.49
2022-12-24T10:50:37.119Z,62.88
2022-12-24T10:53:18.982Z,62.88
2022-12-24T10:55:50.306Z,62.73
2022-12-24T10:58:22.097Z,62.64
2022-12-24T11:00:56.597Z,62.38
2022-12-24T11:03:32.763Z,62.79
2022-12-24T11:06:10.125Z,63.09
2022-12-24T11:08:42.746Z,63.57
2022-12-24T11:11:13.216Z,63.96
2022-12-24T11:13:47.175Z,63.96
2022-12-24T11:16:25.691Z,64.42
2022-12-24T11:18:56.094Z,64.62
2022-12-24T11:21:29.625Z,65.09
2022-12-24T11:24:01.826Z,65.42
2022-12-24T11:26:33.689Z,65.45
2022-12-24T11:29:21.703Z,65.64
2022-12-24T11:31:53.677Z,66.07
2022-12-24T11:34:30.720Z,66.19
2022-12-24T11:37:17.199Z,66.18
2022-12-24T11:39:51.509Z,66.64
2022-12-24T11:42:32.464Z,66.94
2022-12-24T11:45:05.778Z,67.42
2022-12-24T11:47:38.525Z,67.49
2022-12-24T11:50:29.291Z,67.85
2022-12-24T11:53:01.889Z,68.21
2022-12-24T11:55:45.187Z,68.27
2022-12-24T11:58:26.896Z,68.59
2022-12-24T12:01:10.219Z,68.81
2022-12-24T12:03:49.551Z,68.97
2022-12-24T12:06:32.525Z,68.93
2022-12-24T12:09:07.494Z,69.04
2022-12-24T12:11:44.043Z,69.08
2022-12-24T12:14:21.518Z,68.93
2022-12-24T12:17:05.252Z,68.64
2022-12-24T12:19:43.469Z,68.74
2022-12-24T12:22:25.598Z,68.56
2022-12-24T12:25:00.892Z,68.58
2022-12-24T12:27:37.565Z,68.85
2022-12-24T12:30:17.831Z,68.98
2022-12-24T12:32:53.501Z,69.23
2022-12-24T12:35:30.435Z,69.34
2022-12-24T12:38:05.460Z,69.54
2022-12-24T12:41:10.938Z,69.74
2022-12-24T12:44:12.193Z,69.89
2022-12-24T12:46:57.144Z,70.13
2022-12-24T12:49:44.309Z,70.26
2022-12-24T12:52:30.062Z,70.46
2022-12-24T12:55:20.525Z,70.18
2022-12-24T12:58:00.983Z,70.37
2022-12-24T13:00:37.214Z,70.54
2022-12-24T13:03:35.711Z,70.75
2022-12-24T13:06:35.129Z,71.23
2022-12-24T13:09:49.736Z,70.99
2022-12-24T13:12:42.971Z,71.03
2022-12-24T13:15:38.428Z,71.38
2022-12-24T13:18:36.697Z,71.29
2022-12-24T13:21:14.933Z,71.36
2022-12-24T13:23:45.941Z,71.05
2022-12-24T13:26:18.554Z,71.35
2022-12-24T13:28:47.577Z,71.18
2022-12-24T13:31:31.548Z,70.83
2022-12-24T13:34:04.481Z,70.55
2022-12-24T13:37:05.281Z,70.45
2022-12-24T13:40:10.743Z,69.54
2022-12-24T13:42:52.637Z,69.40
2022-12-24T13:45:52.399Z,69.34
2022-12-24T13:48:32.526Z,69.11
2022-12-24T13:51:19.401Z,69.23
2022-12-24T13:53:58.754Z,69.16
2022-12-24T13:56:32.734Z,69.22
2022-12-24T13:59:25.218Z,68.85
2022-12-24T14:01:57.715Z,68.89
2022-12-24T14:04:30.097Z,68.97
2022-12-24T14:07:03.897Z,69.07
2022-12-24T14:09:35.455Z,69.14
2022-12-24T14:12:34.164Z,69.16
2022-12-24T14:18:05.596Z,69.13
2022-12-24T14:20:37.675Z,69.16
2022-12-24T14:23:25.122Z,69.18
2022-12-24T14:25:56.098Z,69.26
2022-12-24T14:28:37.806Z,69.55
2022-12-24T14:31:17.939Z,69.55
2022-12-24T14:33:49.281Z,69.40
2022-12-24T14:36:24.025Z,69.69
2022-12-24T14:38:54.742Z,69.57
2022-12-24T14:41:43.960Z,69.74
2022-12-24T14:44:29.711Z,69.80
2022-12-24T14:47:18.078Z,69.97
2022-12-24T14:50:04.940Z,70.09
2022-12-24T14:55:41.497Z,70.23
2022-12-24T14:58:26.011Z,70.40
2022-12-24T15:00:58.936Z,70.54
2022-12-24T15:03:32.172Z,70.60
2022-12-24T15:06:07.980Z,70.88
2022-12-24T15:08:41.593Z,70.94
2022-12-24T15:11:18.026Z,71.06
2022-12-24T15:13:53.208Z,70.98
2022-12-24T15:16:28.227Z,71.08
2022-12-24T15:19:02.281Z,71.32
2022-12-24T15:21:37.784Z,71.43
2022-12-24T15:24:26.797Z,72.18
2022-12-24T15:26:57.868Z,72.66
2022-12-24T15:29:30.917Z,72.87
2022-12-24T15:32:04.848Z,73.37
2022-12-24T15:34:41.565Z,73.62
2022-12-24T15:37:19.291Z,74.23
2022-12-24T15:39:56.676Z,74.39
2022-12-24T15:42:28.971Z,74.96
2022-12-24T15:45:03.820Z,75.08
2022-12-24T15:47:38.714Z,75.35
2022-12-24T15:50:19.696Z,75.36
2022-12-24T15:53:18.566Z,75.53
2022-12-24T15:55:45.512Z,75.59
2022-12-24T15:58:28.421Z,75.78
2022-12-24T16:01:28.296Z,75.98
2022-12-24T16:04:01.172Z,76.10
2022-12-24T16:06:50.369Z,76.77
2022-12-24T16:09:46.288Z,76.78
2022-12-24T16:12:22.149Z,76.47
2022-12-24T16:14:56.434Z,76.35
2022-12-24T16:17:29.951Z,76.09
2022-12-24T16:20:05.324Z,76.22
2022-12-24T16:22:36.301Z,75.92
2022-12-24T16:25:26.017Z,75.61
2022-12-24T16:28:00.312Z,75.81
2022-12-24T16:30:31.810Z,75.84
2022-12-24T16:33:02.377Z,75.78
2022-12-24T16:35:36.592Z,75.64
2022-12-24T16:38:07.502Z,75.75
2022-12-24T16:40:38.141Z,75.52
2022-12-24T16:43:27.007Z,75.55
2022-12-24T16:46:04.003Z,75.64
2022-12-24T16:48:37.446Z,75.69
2022-12-24T16:51:08.509Z,75.69
2022-12-24T16:53:39.264Z,75.77
2022-12-24T16:56:10.744Z,76.01
2022-12-24T16:58:41.422Z,76.25
2022-12-24T17:01:12.527Z,76.40
2022-12-24T17:03:43.395Z,76.47
2022-12-24T17:06:13.985Z,76.48
2022-12-24T17:08:44.767Z,76.50
2022-12-24T17:11:15.453Z,76.77
2022-12-24T17:13:46.180Z,77.10
2022-12-24T17:16:17.131Z,77.17
2022-12-24T17:18:47.823Z,77.43
2022-12-24T17:21:18.955Z,77.45
2022-12-24T17:23:49.692Z,77.52
2022-12-24T17:26:20.381Z,77.58
2022-12-24T17:28:53.694Z,77.84
2022-12-24T17:31:25.536Z,77.63
2022-12-24T17:33:56.384Z,77.69
2022-12-24T17:36:27.423Z,77.78
2022-12-24T17:38:58.112Z,77.66
2022-12-24T17:41:28.942Z,77.57
2022-12-24T17:44:01.127Z,77.50
2022-12-24T17:46:31.990Z,77.71
2022-12-24T17:49:03.161Z,77.45
2022-12-24T17:51:35.153Z,77.61
2022-12-24T17:54:08.517Z,77.25
2022-12-24T17:56:39.197Z,77.46
2022-12-24T17:59:09.844Z,77.70
2022-12-24T18:01:40.698Z,77.50
2022-12-24T18:04:11.692Z,77.37
2022-12-24T18:06:49.014Z,77.93
2022-12-24T18:09:20.396Z,77.48
2022-12-24T18:11:54.573Z,77.63
2022-12-24T18:14:25.264Z,77.80
2022-12-24T18:16:55.956Z,77.51
2022-12-24T18:19:26.791Z,77.55
2022-12-24T18:21:57.524Z,77.35
2022-12-24T18:24:28.669Z,77.19
2022-12-24T18:26:59.355Z,77.63
2022-12-24T18:29:30.026Z,77.77
2022-12-24T18:32:00.776Z,77.71
2022-12-24T18:34:31.394Z,77.68
2022-12-24T18:37:02.246Z,77.75
2022-12-24T18:39:32.871Z,77.76
2022-12-24T18:42:03.622Z,77.65
2022-12-24T18:44:34.296Z,77.98
2022-12-24T18:47:05.086Z,78.38
2022-12-24T18:49:36.765Z,78.24
2022-12-24T18:52:09.279Z,78.21
2022-12-24T18:54:40.482Z,78.40
2022-12-24T18:57:11.149Z,78.45
2022-12-24T18:59:42.177Z,77.87
2022-12-24T19:02:13.179Z,77.92
2022-12-24T19:04:44.358Z,78.04
2022-12-24T19:07:15.103Z,78.18
2022-12-24T19:09:48.506Z,78.00
2022-12-24T19:12:19.411Z,78.35
2022-12-24T19:14:50.203Z,78.01
2022-12-24T19:17:20.921Z,77.98
2022-12-24T19:19:53.123Z,77.93
2022-12-24T19:22:23.715Z,77.93
2022-12-24T19:24:54.425Z,77.29
2022-12-24T19:27:25.176Z,77.44
2022-12-24T19:29:55.880Z,77.56
2022-12-24T19:32:26.645Z,77.80
2022-12-24T19:34:57.232Z,77.94
2022-12-24T19:37:27.885Z,77.79
2022-12-24T19:39:58.500Z,77.73
2022-12-24T19:42:29.357Z,77.67
2022-12-24T19:45:00.146Z,77.81
2022-12-24T19:47:31.062Z,77.70
2022-12-24T19:50:02.020Z,77.55
2022-12-24T19:52:34.890Z,77.61
2022-12-24T19:55:09.271Z,77.53
2022-12-24T19:57:44.291Z,77.56
2022-12-24T20:00:26.046Z,77.65
2022-12-24T20:02:56.802Z,78.07
2022-12-24T20:05:30.264Z,78.04
2022-12-24T20:08:01.183Z,77.85
2022-12-24T20:10:31.875Z,78.03
2022-12-24T20:13:06.153Z,78.11
2022-12-24T20:15:40.761Z,78.32
2022-12-24T20:18:13.540Z,78.10
2022-12-24T20:20:45.740Z,78.43
2022-12-24T20:23:17.748Z,78.42
2022-12-24T20:25:58.862Z,78.27
2022-12-24T20:28:31.056Z,78.10
2022-12-24T20:31:01.992Z,78.05
2022-12-24T20:33:32.775Z,77.94
2022-12-24T20:36:05.923Z,78.01
2022-12-24T20:38:37.955Z,78.06
2022-12-24T20:41:14.166Z,77.84
2022-12-24T20:43:48.571Z,78.02
2022-12-24T20:46:24.288Z,77.80
2022-12-24T20:48:56.054Z,77.63
2022-12-24T20:51:28.811Z,77.50
2022-12-24T20:54:01.472Z,77.43
2022-12-24T20:56:32.364Z,77.57
2022-12-24T20:59:10.859Z,77.34
2022-12-24T21:01:41.683Z,77.40
2022-12-24T21:04:12.859Z,77.46
2022-12-24T21:06:46.268Z,77.60
2022-12-24T21:09:16.914Z,77.46
2022-12-24T21:12:06.683Z,77.64
2022-12-24T21:14:37.389Z,77.64
2022-12-24T21:17:13.568Z,77.51
2022-12-24T21:19:46.215Z,77.61
2022-12-24T21:22:17.028Z,77.58
2022-12-24T21:24:47.738Z,77.83
2022-12-24T21:27:18.459Z,77.59
2022-12-24T21:29:49.320Z,77.76
2022-12-24T21:32:19.993Z,77.66
2022-12-24T21:34:50.671Z,77.96
2022-12-24T21:37:21.775Z,78.12
2022-12-24T21:39:52.885Z,77.88
2022-12-24T21:42:23.629Z,77.85
2022-12-24T21:44:54.590Z,78.04
2022-12-24T21:47:25.801Z,78.10
2022-12-24T21:50:13.701Z,78.09
2022-12-24T21:52:44.369Z,77.81
2022-12-24T21:55:15.008Z,77.99
2022-12-24T21:57:54.639Z,78.12
2022-12-24T22:00:26.983Z,78.11
2022-12-24T22:02:59.672Z,78.03
2022-12-24T22:05:33.376Z,78.16
2022-12-24T22:08:22.668Z,77.97
2022-12-24T22:11:25.408Z,77.82
2022-12-24T22:13:56.140Z,77.44
2022-12-24T22:16:27.087Z,77.78
2022-12-24T22:18:57.860Z,77.62
2022-12-24T22:21:28.454Z,77.74
2022-12-24T22:23:59.715Z,77.74
2022-12-24T22:26:30.382Z,78.26
2022-12-24T22:29:01.034Z,78.18
2022-12-24T22:31:32.499Z,78.10
2022-12-24T22:34:03.566Z,77.97
2022-12-24T22:36:34.761Z,77.87
2022-12-24T22:39:05.619Z,77.78
2022-12-24T22:41:36.318Z,77.54
2022-12-24T22:44:06.960Z,77.75
2022-12-24T22:46:37.742Z,77.48
2022-12-24T22:49:08.550Z,77.52
2022-12-24T22:51:39.194Z,77.28
2022-12-24T22:54:09.854Z,77.54
2022-12-24T22:56:41.553Z,77.31
2022-12-24T22:59:15.309Z,77.41
2022-12-24T23:01:48.133Z,77.34
2022-12-24T23:04:18.854Z,77.30
2022-12-24T23:06:49.622Z,76.77
2022-12-24T23:09:20.637Z,77.00
2022-12-24T23:11:51.328Z,77.25
2022-12-24T23:14:41.188Z,76.91
2022-12-24T23:17:12.835Z,77.02
2022-12-24T23:19:43.628Z,77.02
2022-12-24T23:22:14.409Z,77.08
2022-12-24T23:24:45.503Z,76.94
2022-12-24T23:27:16.279Z,77.19
2022-12-24T23:29:47.056Z,76.92
2022-12-24T23:32:17.737Z,77.07
2022-12-24T23:34:48.571Z,77.13
2022-12-24T23:37:19.176Z,77.46
2022-12-24T23:39:49.768Z,77.58
2022-12-24T23:42:20.498Z,77.82
2022-12-24T23:44:52.220Z,77.87
2022-12-24T23:47:22.978Z,77.76
2022-12-24T23:49:53.691Z,78.14
2022-12-24T23:52:24.309Z,78.05
2022-12-24T23:54:54.940Z,78.25
2022-12-24T23:57:25.628Z,78.35
2022-12-24T23:59:56.265Z,78.22
